sensor_id;sensor_type;location;lat;lon;timestamp;pressure;altitude;pressure_sealevel;temperature;humidity
50852;BME280;43953;45.508;-122.806;2022-10-17T00:00:25;100480.69;;;28.31;29.34
50852;BME280;43953;45.508;-122.806;2022-10-17T00:00:56;100480.69;;;28.31;29.31
50852;BME280;43953;45.508;-122.806;2022-10-17T00:01:28;100480.69;;;28.31;29.09
50852;BME280;43953;45.508;-122.806;2022-10-17T00:02:00;100481.81;;;28.30;29.60
50852;BME280;43953;45.508;-122.806;2022-10-17T00:02:31;100479.41;;;28.28;29.57
50852;BME280;43953;45.508;-122.806;2022-10-17T00:03:03;100484.13;;;28.28;29.16
50852;BME280;43953;45.508;-122.806;2022-10-17T00:03:36;100484.44;;;28.26;29.31
50852;BME280;43953;45.508;-122.806;2022-10-17T00:04:08;100480.88;;;28.26;29.26
50852;BME280;43953;45.508;-122.806;2022-10-17T00:04:40;100482.03;;;28.25;29.34
50852;BME280;43953;45.508;-122.806;2022-10-17T00:05:12;100483.97;;;28.24;29.27
50852;BME280;43953;45.508;-122.806;2022-10-17T00:05:45;100474.38;;;28.22;29.58
50852;BME280;43953;45.508;-122.806;2022-10-17T00:06:17;100477.13;;;28.22;29.66
50852;BME280;43953;45.508;-122.806;2022-10-17T00:06:49;100481.06;;;28.21;29.50
50852;BME280;43953;45.508;-122.806;2022-10-17T00:07:20;100481.41;;;28.19;29.56
50852;BME280;43953;45.508;-122.806;2022-10-17T00:07:52;100483.34;;;28.19;29.87
50852;BME280;43953;45.508;-122.806;2022-10-17T00:08:24;100478.97;;;28.18;29.51
50852;BME280;43953;45.508;-122.806;2022-10-17T00:08:56;100477.34;;;28.17;29.79
50852;BME280;43953;45.508;-122.806;2022-10-17T00:09:28;100488.41;;;28.17;29.98
50852;BME280;43953;45.508;-122.806;2022-10-17T00:09:59;100484.00;;;28.16;29.62
50852;BME280;43953;45.508;-122.806;2022-10-17T00:10:31;100484.00;;;28.16;29.58
50852;BME280;43953;45.508;-122.806;2022-10-17T00:11:15;100484.69;;;28.12;29.73
50852;BME280;43953;45.508;-122.806;2022-10-17T00:11:47;100489.09;;;28.13;29.99
50852;BME280;43953;45.508;-122.806;2022-10-17T00:12:19;100482.75;;;28.13;29.72
50852;BME280;43953;45.508;-122.806;2022-10-17T00:12:51;100483.56;;;28.13;30.16
50852;BME280;43953;45.508;-122.806;2022-10-17T00:13:23;100495.44;;;28.14;30.14
50852;BME280;43953;45.508;-122.806;2022-10-17T00:13:55;100487.78;;;28.11;30.38
50852;BME280;43953;45.508;-122.806;2022-10-17T00:14:27;100494.94;;;28.12;29.84
50852;BME280;43953;45.508;-122.806;2022-10-17T00:14:59;100493.31;;;28.11;30.01
50852;BME280;43953;45.508;-122.806;2022-10-17T00:15:31;100496.41;;;28.09;30.00
50852;BME280;43953;45.508;-122.806;2022-10-17T00:16:03;100493.38;;;28.02;30.31
50852;BME280;43953;45.508;-122.806;2022-10-17T00:16:36;100494.53;;;28.01;30.54
50852;BME280;43953;45.508;-122.806;2022-10-17T00:17:07;100496.44;;;28.01;30.18
50852;BME280;43953;45.508;-122.806;2022-10-17T00:17:39;100498.41;;;28.00;30.38
50852;BME280;43953;45.508;-122.806;2022-10-17T00:18:12;100496.31;;;27.97;30.13
50852;BME280;43953;45.508;-122.806;2022-10-17T00:18:43;100492.41;;;27.98;30.17
50852;BME280;43953;45.508;-122.806;2022-10-17T00:19:15;100500.22;;;27.96;30.14
50852;BME280;43953;45.508;-122.806;2022-10-17T00:19:47;100492.25;;;27.95;30.61
50852;BME280;43953;45.508;-122.806;2022-10-17T00:20:19;100496.16;;;27.94;30.25
50852;BME280;43953;45.508;-122.806;2022-10-17T00:20:51;100498.44;;;27.92;30.42
50852;BME280;43953;45.508;-122.806;2022-10-17T00:21:23;100501.56;;;27.90;30.38
50852;BME280;43953;45.508;-122.806;2022-10-17T00:21:55;100498.28;;;27.88;30.24
50852;BME280;43953;45.508;-122.806;2022-10-17T00:22:27;100494.72;;;27.87;30.58
50852;BME280;43953;45.508;-122.806;2022-10-17T00:22:59;100495.88;;;27.86;30.45
50852;BME280;43953;45.508;-122.806;2022-10-17T00:23:30;100502.53;;;27.85;30.47
50852;BME280;43953;45.508;-122.806;2022-10-17T00:24:03;100505.66;;;27.84;30.67
50852;BME280;43953;45.508;-122.806;2022-10-17T00:24:35;100504.66;;;27.80;30.68
50852;BME280;43953;45.508;-122.806;2022-10-17T00:25:07;100503.03;;;27.79;30.93
50852;BME280;43953;45.508;-122.806;2022-10-17T00:25:39;100505.28;;;27.77;30.94
50852;BME280;43953;45.508;-122.806;2022-10-17T00:26:11;100506.44;;;27.76;30.42
50852;BME280;43953;45.508;-122.806;2022-10-17T00:26:42;100504.84;;;27.75;30.97
50852;BME280;43953;45.508;-122.806;2022-10-17T00:27:14;100507.09;;;27.73;30.57
50852;BME280;43953;45.508;-122.806;2022-10-17T00:27:46;100514.41;;;27.68;30.73
50852;BME280;43953;45.508;-122.806;2022-10-17T00:28:18;100510.69;;;27.64;31.05
50852;BME280;43953;45.508;-122.806;2022-10-17T00:28:51;100514.63;;;27.63;30.78
50852;BME280;43953;45.508;-122.806;2022-10-17T00:29:23;100507.44;;;27.62;30.95
50852;BME280;43953;45.508;-122.806;2022-10-17T00:29:54;100512.97;;;27.62;30.69
50852;BME280;43953;45.508;-122.806;2022-10-17T00:30:26;100511.34;;;27.61;30.82
50852;BME280;43953;45.508;-122.806;2022-10-17T00:31:00;100503.41;;;27.60;30.91
50852;BME280;43953;45.508;-122.806;2022-10-17T00:31:32;100509.25;;;27.58;31.22
50852;BME280;43953;45.508;-122.806;2022-10-17T00:32:06;100506.34;;;27.55;31.29
50852;BME280;43953;45.508;-122.806;2022-10-17T00:32:38;100516.59;;;27.54;31.14
50852;BME280;43953;45.508;-122.806;2022-10-17T00:33:09;100517.72;;;27.53;31.40
50852;BME280;43953;45.508;-122.806;2022-10-17T00:33:41;100514.13;;;27.53;31.16
50852;BME280;43953;45.508;-122.806;2022-10-17T00:34:14;100514.47;;;27.51;31.16
50852;BME280;43953;45.508;-122.806;2022-10-17T00:34:45;100516.75;;;27.49;31.42
50852;BME280;43953;45.508;-122.806;2022-10-17T00:35:17;100522.59;;;27.48;31.37
50852;BME280;43953;45.508;-122.806;2022-10-17T00:35:49;100527.66;;;27.45;31.11
50852;BME280;43953;45.508;-122.806;2022-10-17T00:36:23;100523.59;;;27.43;31.33
50852;BME280;43953;45.508;-122.806;2022-10-17T00:36:55;100525.06;;;27.40;31.11
50852;BME280;43953;45.508;-122.806;2022-10-17T00:37:29;100523.44;;;27.39;31.18
50852;BME280;43953;45.508;-122.806;2022-10-17T00:38:01;100521.00;;;27.38;31.50
50852;BME280;43953;45.508;-122.806;2022-10-17T00:38:34;100524.91;;;27.37;31.09
50852;BME280;43953;45.508;-122.806;2022-10-17T00:39:06;100520.50;;;27.36;31.52
50852;BME280;43953;45.508;-122.806;2022-10-17T00:39:38;100525.56;;;27.34;31.31
50852;BME280;43953;45.508;-122.806;2022-10-17T00:40:10;100526.69;;;27.33;31.31
50852;BME280;43953;45.508;-122.806;2022-10-17T00:40:42;100527.81;;;27.32;31.65
50852;BME280;43953;45.508;-122.806;2022-10-17T00:41:16;100532.06;;;27.29;31.80
50852;BME280;43953;45.508;-122.806;2022-10-17T00:41:48;100524.09;;;27.28;31.50
50852;BME280;43953;45.508;-122.806;2022-10-17T00:42:20;100527.19;;;27.26;31.86
50852;BME280;43953;45.508;-122.806;2022-10-17T00:42:52;100523.75;;;27.20;31.90
50852;BME280;43953;45.508;-122.806;2022-10-17T00:43:24;100532.69;;;27.17;31.49
50852;BME280;43953;45.508;-122.806;2022-10-17T00:44:02;100536.56;;;27.08;31.62
50852;BME280;43953;45.508;-122.806;2022-10-17T00:45:17;100537.72;;;27.07;31.68
50852;BME280;43953;45.508;-122.806;2022-10-17T00:45:50;100532.00;;;27.03;32.13
50852;BME280;43953;45.508;-122.806;2022-10-17T00:46:24;100538.69;;;27.02;31.95
50852;BME280;43953;45.508;-122.806;2022-10-17T00:46:58;100542.59;;;27.01;31.93
50852;BME280;43953;45.508;-122.806;2022-10-17T00:47:30;100536.41;;;26.95;31.84
50852;BME280;43953;45.508;-122.806;2022-10-17T00:48:06;100533.66;;;26.95;32.16
50852;BME280;43953;45.508;-122.806;2022-10-17T00:48:38;100531.19;;;26.94;31.96
50852;BME280;43953;45.508;-122.806;2022-10-17T00:49:11;100543.91;;;26.95;32.35
50852;BME280;43953;45.508;-122.806;2022-10-17T00:49:42;100536.25;;;26.92;32.00
50852;BME280;43953;45.508;-122.806;2022-10-17T00:50:15;100543.41;;;26.93;31.96
50852;BME280;43953;45.508;-122.806;2022-10-17T00:50:47;100544.53;;;26.92;31.88
50852;BME280;43953;45.508;-122.806;2022-10-17T00:51:25;100534.13;;;26.89;32.20
50852;BME280;43953;45.508;-122.806;2022-10-17T00:52:02;100551.03;;;26.87;32.25
50852;BME280;43953;45.508;-122.806;2022-10-17T00:52:35;100543.53;;;26.88;32.51
50852;BME280;43953;45.508;-122.806;2022-10-17T00:53:07;100545.81;;;26.86;32.30
50852;BME280;43953;45.508;-122.806;2022-10-17T00:53:39;100552.16;;;26.86;32.53
50852;BME280;43953;45.508;-122.806;2022-10-17T00:54:13;100550.06;;;26.83;32.05
50852;BME280;43953;45.508;-122.806;2022-10-17T00:54:58;100554.25;;;26.81;32.44
50852;BME280;43953;45.508;-122.806;2022-10-17T00:55:34;100559.28;;;26.78;32.28
50852;BME280;43953;45.508;-122.806;2022-10-17T00:56:09;100555.56;;;26.74;32.17
50852;BME280;43953;45.508;-122.806;2022-10-17T00:56:42;100555.56;;;26.74;32.39
50852;BME280;43953;45.508;-122.806;2022-10-17T00:57:16;100564.47;;;26.71;32.45
50852;BME280;43953;45.508;-122.806;2022-10-17T00:57:48;100556.19;;;26.71;32.37
50852;BME280;43953;45.508;-122.806;2022-10-17T00:58:21;100555.19;;;26.67;32.39
50852;BME280;43953;45.508;-122.806;2022-10-17T00:58:52;100557.47;;;26.65;32.44
50852;BME280;43953;45.508;-122.806;2022-10-17T00:59:25;100549.19;;;26.65;32.60
50852;BME280;43953;45.508;-122.806;2022-10-17T00:59:59;100560.25;;;26.65;32.69
50852;BME280;43953;45.508;-122.806;2022-10-17T01:00:37;100566.06;;;26.64;32.41
50852;BME280;43953;45.508;-122.806;2022-10-17T01:01:09;100552.09;;;26.60;32.80
50852;BME280;43953;45.508;-122.806;2022-10-17T01:01:42;100563.47;;;26.59;33.09
50852;BME280;43953;45.508;-122.806;2022-10-17T01:02:20;100561.03;;;26.57;32.92
50852;BME280;43953;45.508;-122.806;2022-10-17T01:02:52;100560.53;;;26.55;32.79
50852;BME280;43953;45.508;-122.806;2022-10-17T01:03:24;100560.03;;;26.53;32.56
50852;BME280;43953;45.508;-122.806;2022-10-17T01:03:56;100565.25;;;26.54;32.69
50852;BME280;43953;45.508;-122.806;2022-10-17T01:04:28;100563.94;;;26.52;32.99
50852;BME280;43953;45.508;-122.806;2022-10-17T01:05:00;100568.63;;;26.51;32.82
50852;BME280;43953;45.508;-122.806;2022-10-17T01:05:32;100566.69;;;26.52;32.57
50852;BME280;43953;45.508;-122.806;2022-10-17T01:06:44;100567.63;;;26.47;33.04
50852;BME280;43953;45.508;-122.806;2022-10-17T01:07:16;100568.44;;;26.48;33.25
50852;BME280;43953;45.508;-122.806;2022-10-17T01:07:49;100565.47;;;26.44;32.88
50852;BME280;43953;45.508;-122.806;2022-10-17T01:08:22;100566.97;;;26.42;33.41
50852;BME280;43953;45.508;-122.806;2022-10-17T01:08:54;100570.03;;;26.40;33.02
50852;BME280;43953;45.508;-122.806;2022-10-17T01:09:26;100570.38;;;26.39;33.08
50852;BME280;43953;45.508;-122.806;2022-10-17T01:09:58;100573.94;;;26.39;33.15
50852;BME280;43953;45.508;-122.806;2022-10-17T01:10:39;100575.88;;;26.39;33.31
50852;BME280;43953;45.508;-122.806;2022-10-17T01:13:06;100585.75;;;26.31;33.39
50852;BME280;43953;45.508;-122.806;2022-10-17T01:16:12;100593.97;;;26.22;33.59
50852;BME280;43953;45.508;-122.806;2022-10-17T01:17:34;100589.91;;;26.20;33.87
50852;BME280;43953;45.508;-122.806;2022-10-17T01:19:35;100587.09;;;26.11;34.00
50852;BME280;43953;45.508;-122.806;2022-10-17T01:20:35;100589.81;;;26.02;34.25
50852;BME280;43953;45.508;-122.806;2022-10-17T01:22:09;100596.59;;;25.96;34.20
50852;BME280;43953;45.508;-122.806;2022-10-17T01:24:40;100600.94;;;25.89;34.28
50852;BME280;43953;45.508;-122.806;2022-10-17T01:25:44;100606.56;;;25.83;34.46
50852;BME280;43953;45.508;-122.806;2022-10-17T01:26:47;100609.13;;;25.80;34.70
50852;BME280;43953;45.508;-122.806;2022-10-17T01:30:28;100616.06;;;25.77;35.05
50852;BME280;43953;45.508;-122.806;2022-10-17T01:31:15;100608.09;;;25.76;35.07
50852;BME280;43953;45.508;-122.806;2022-10-17T01:32:08;100616.69;;;25.74;35.09
50852;BME280;43953;45.508;-122.806;2022-10-17T01:32:53;100615.91;;;25.74;35.10
50852;BME280;43953;45.508;-122.806;2022-10-17T01:33:54;100627.72;;;25.74;34.96
50852;BME280;43953;45.508;-122.806;2022-10-17T01:34:48;100623.03;;;25.75;35.21
50852;BME280;43953;45.508;-122.806;2022-10-17T01:35:46;100623.03;;;25.75;35.42
50852;BME280;43953;45.508;-122.806;2022-10-17T01:36:41;100619.75;;;25.73;35.25
50852;BME280;43953;45.508;-122.806;2022-10-17T01:37:34;100624.47;;;25.72;35.64
50852;BME280;43953;45.508;-122.806;2022-10-17T01:38:16;100630.31;;;25.71;35.65
50852;BME280;43953;45.508;-122.806;2022-10-17T01:38:55;100629.47;;;25.70;35.90
50852;BME280;43953;45.508;-122.806;2022-10-17T01:40:49;100619.56;;;25.69;35.83
50852;BME280;43953;45.508;-122.806;2022-10-17T01:41:58;100627.34;;;25.67;35.68
50852;BME280;43953;45.508;-122.806;2022-10-17T01:43:38;100630.41;;;25.65;35.63
50852;BME280;43953;45.508;-122.806;2022-10-17T01:44:17;100641.44;;;25.65;35.86
50852;BME280;43953;45.508;-122.806;2022-10-17T01:45:05;100635.75;;;25.62;35.91
50852;BME280;43953;45.508;-122.806;2022-10-17T01:46:37;100639.63;;;25.61;36.26
50852;BME280;43953;45.508;-122.806;2022-10-17T01:47:16;100649.84;;;25.60;35.85
50852;BME280;43953;45.508;-122.806;2022-10-17T01:47:51;100648.22;;;25.59;35.88
50852;BME280;43953;45.508;-122.806;2022-10-17T01:48:29;100651.25;;;25.58;36.24
50852;BME280;43953;45.508;-122.806;2022-10-17T01:49:07;100649.66;;;25.57;36.00
50852;BME280;43953;45.508;-122.806;2022-10-17T01:49:41;100648.03;;;25.56;36.05
50852;BME280;43953;45.508;-122.806;2022-10-17T01:50:19;100644.75;;;25.54;36.19
50852;BME280;43953;45.508;-122.806;2022-10-17T01:50:59;100652.50;;;25.52;36.06
50852;BME280;43953;45.508;-122.806;2022-10-17T01:51:45;100649.28;;;25.50;36.36
50852;BME280;43953;45.508;-122.806;2022-10-17T01:52:28;100651.81;;;25.46;36.26
50852;BME280;43953;45.508;-122.806;2022-10-17T01:53:09;100646.31;;;25.46;36.24
50852;BME280;43953;45.508;-122.806;2022-10-17T01:53:52;100644.97;;;25.43;36.40
50852;BME280;43953;45.508;-122.806;2022-10-17T01:55:03;100650.81;;;25.42;36.29
50852;BME280;43953;45.508;-122.806;2022-10-17T01:55:39;100650.00;;;25.41;36.30
50852;BME280;43953;45.508;-122.806;2022-10-17T01:56:13;100656.63;;;25.40;36.48
50852;BME280;43953;45.508;-122.806;2022-10-17T01:56:48;100655.00;;;25.39;36.42
50852;BME280;43953;45.508;-122.806;2022-10-17T01:57:44;100655.31;;;25.38;36.53
50852;BME280;43953;45.508;-122.806;2022-10-17T01:58:42;100654.81;;;25.36;36.82
50852;BME280;43953;45.508;-122.806;2022-10-17T01:59:22;100652.34;;;25.34;36.69
50852;BME280;43953;45.508;-122.806;2022-10-17T01:59:55;100664.19;;;25.35;36.38
50852;BME280;43953;45.508;-122.806;2022-10-17T02:00:28;100658.66;;;25.35;36.51
50852;BME280;43953;45.508;-122.806;2022-10-17T02:01:04;100667.25;;;25.33;36.51
50852;BME280;43953;45.508;-122.806;2022-10-17T02:01:40;100666.44;;;25.33;36.57
50852;BME280;43953;45.508;-122.806;2022-10-17T02:02:14;100662.88;;;25.32;36.76
50852;BME280;43953;45.508;-122.806;2022-10-17T02:02:57;100667.88;;;25.30;36.89
50852;BME280;43953;45.508;-122.806;2022-10-17T02:03:30;100664.63;;;25.28;36.85
50852;BME280;43953;45.508;-122.806;2022-10-17T02:04:06;100665.75;;;25.27;36.76
50852;BME280;43953;45.508;-122.806;2022-10-17T02:04:39;100667.69;;;25.27;36.79
50852;BME280;43953;45.508;-122.806;2022-10-17T02:05:11;100664.13;;;25.26;36.84
50852;BME280;43953;45.508;-122.806;2022-10-17T02:05:44;100669.94;;;25.25;36.66
50852;BME280;43953;45.508;-122.806;2022-10-17T02:06:16;100673.81;;;25.24;36.67
50852;BME280;43953;45.508;-122.806;2022-10-17T02:06:47;100666.97;;;25.21;36.57
50852;BME280;43953;45.508;-122.806;2022-10-17T02:07:19;100675.25;;;25.21;37.00
50852;BME280;43953;45.508;-122.806;2022-10-17T02:07:51;100679.09;;;25.20;36.79
50852;BME280;43953;45.508;-122.806;2022-10-17T02:08:43;100672.06;;;25.14;36.98
50852;BME280;43953;45.508;-122.806;2022-10-17T02:09:16;100689.13;;;25.16;36.89
50852;BME280;43953;45.508;-122.806;2022-10-17T02:09:48;100688.59;;;25.14;36.90
50852;BME280;43953;45.508;-122.806;2022-10-17T02:10:30;100686.97;;;25.13;36.72
50852;BME280;43953;45.508;-122.806;2022-10-17T02:11:18;100685.63;;;25.10;37.10
50852;BME280;43953;45.508;-122.806;2022-10-17T02:13:41;100693.19;;;25.05;37.06
50852;BME280;43953;45.508;-122.806;2022-10-17T02:16:47;100694.41;;;24.98;37.33
50852;BME280;43953;45.508;-122.806;2022-10-17T02:18:23;100700.00;;;24.93;37.50
50852;BME280;43953;45.508;-122.806;2022-10-17T02:19:16;100699.50;;;24.91;37.50
50852;BME280;43953;45.508;-122.806;2022-10-17T02:21:23;100702.56;;;24.90;37.55
50852;BME280;43953;45.508;-122.806;2022-10-17T02:25:13;100705.31;;;24.76;37.86
50852;BME280;43953;45.508;-122.806;2022-10-17T02:26:00;100707.56;;;24.74;37.88
50852;BME280;43953;45.508;-122.806;2022-10-17T02:26:55;100713.69;;;24.71;37.87
50852;BME280;43953;45.508;-122.806;2022-10-17T02:30:13;100720.47;;;24.60;38.34
50852;BME280;43953;45.508;-122.806;2022-10-17T02:30:53;100719.16;;;24.57;38.03
50852;BME280;43953;45.508;-122.806;2022-10-17T02:31:33;100714.78;;;24.56;38.07
50852;BME280;43953;45.508;-122.806;2022-10-17T02:32:13;100723.31;;;24.55;38.26
50852;BME280;43953;45.508;-122.806;2022-10-17T02:33:10;100720.06;;;24.52;38.31
50852;BME280;43953;45.508;-122.806;2022-10-17T02:34:02;100724.53;;;24.48;38.42
50852;BME280;43953;45.508;-122.806;2022-10-17T02:34:47;100723.19;;;24.46;38.42
50852;BME280;43953;45.508;-122.806;2022-10-17T02:35:21;100725.13;;;24.45;38.44
50852;BME280;43953;45.508;-122.806;2022-10-17T02:36:02;100725.13;;;24.45;38.44
50852;BME280;43953;45.508;-122.806;2022-10-17T02:36:47;100732.91;;;24.43;38.61
50852;BME280;43953;45.508;-122.806;2022-10-17T02:37:24;100729.59;;;24.41;38.33
50852;BME280;43953;45.508;-122.806;2022-10-17T02:37:58;100734.28;;;24.41;38.39
50852;BME280;43953;45.508;-122.806;2022-10-17T02:38:31;100736.50;;;24.39;38.50
50852;BME280;43953;45.508;-122.806;2022-10-17T02:39:06;100738.44;;;24.38;38.33
50852;BME280;43953;45.508;-122.806;2022-10-17T02:39:39;100739.53;;;24.37;38.57
50852;BME280;43953;45.508;-122.806;2022-10-17T02:40:15;100744.56;;;24.35;38.64
50852;BME280;43953;45.508;-122.806;2022-10-17T02:40:49;100741.28;;;24.33;38.69
50852;BME280;43953;45.508;-122.806;2022-10-17T02:41:23;100744.34;;;24.32;38.85
50852;BME280;43953;45.508;-122.806;2022-10-17T02:41:56;100741.59;;;24.32;38.66
50852;BME280;43953;45.508;-122.806;2022-10-17T02:42:31;100741.59;;;24.32;38.73
50852;BME280;43953;45.508;-122.806;2022-10-17T02:43:03;100743.81;;;24.29;38.55
50852;BME280;43953;45.508;-122.806;2022-10-17T02:43:36;100747.69;;;24.28;38.71
50852;BME280;43953;45.508;-122.806;2022-10-17T02:44:09;100746.03;;;24.27;38.76
50852;BME280;43953;45.508;-122.806;2022-10-17T02:44:43;100740.84;;;24.26;38.81
50852;BME280;43953;45.508;-122.806;2022-10-17T02:45:16;100747.78;;;24.23;38.87
50852;BME280;43953;45.508;-122.806;2022-10-17T02:45:49;100743.38;;;24.22;39.16
50852;BME280;43953;45.508;-122.806;2022-10-17T02:46:23;100757.44;;;24.21;39.10
50852;BME280;43953;45.508;-122.806;2022-10-17T02:48:11;100760.25;;;24.16;39.27
50852;BME280;43953;45.508;-122.806;2022-10-17T02:49:11;100758.63;;;24.15;39.39
50852;BME280;43953;45.508;-122.806;2022-10-17T02:49:40;100754.25;;;24.14;39.49
50852;BME280;43953;45.508;-122.806;2022-10-17T02:50:15;100757.00;;;24.14;39.06
50852;BME280;43953;45.508;-122.806;2022-10-17T02:51:15;100762.25;;;24.10;39.15
50852;BME280;43953;45.508;-122.806;2022-10-17T02:52:07;100763.69;;;24.07;39.25
50852;BME280;43953;45.508;-122.806;2022-10-17T02:53:18;100763.47;;;24.04;39.36
50852;BME280;43953;45.508;-122.806;2022-10-17T02:54:49;100766.53;;;24.02;39.49
50852;BME280;43953;45.508;-122.806;2022-10-17T02:55:30;100769.56;;;24.01;39.49
50852;BME280;43953;45.508;-122.806;2022-10-17T02:56:11;100775.38;;;23.99;39.64
50852;BME280;43953;45.508;-122.806;2022-10-17T02:56:54;100770.47;;;23.96;39.60
50852;BME280;43953;45.508;-122.806;2022-10-17T02:58:15;100779.81;;;23.95;39.69
50852;BME280;43953;45.508;-122.806;2022-10-17T02:58:52;100778.47;;;23.93;39.62
50852;BME280;43953;45.508;-122.806;2022-10-17T02:59:26;100782.34;;;23.92;39.70
50852;BME280;43953;45.508;-122.806;2022-10-17T03:00:05;100774.41;;;23.90;39.81
50852;BME280;43953;45.508;-122.806;2022-10-17T03:00:39;100777.16;;;23.90;39.80
50852;BME280;43953;45.508;-122.806;2022-10-17T03:01:12;100777.44;;;23.89;39.89
50852;BME280;43953;45.508;-122.806;2022-10-17T03:01:44;100784.88;;;23.88;39.60
50852;BME280;43953;45.508;-122.806;2022-10-17T03:02:16;100787.09;;;23.86;39.69
50852;BME280;43953;45.508;-122.806;2022-10-17T03:02:50;100785.47;;;23.85;39.91
50852;BME280;43953;45.508;-122.806;2022-10-17T03:03:25;100784.94;;;23.83;39.86
50852;BME280;43953;45.508;-122.806;2022-10-17T03:04:08;100791.56;;;23.82;39.91
50852;BME280;43953;45.508;-122.806;2022-10-17T03:04:45;100788.28;;;23.80;40.04
50852;BME280;43953;45.508;-122.806;2022-10-17T03:05:23;100792.44;;;23.77;40.07
50852;BME280;43953;45.508;-122.806;2022-10-17T03:05:55;100792.44;;;23.77;40.19
50852;BME280;43953;45.508;-122.806;2022-10-17T03:06:26;100797.94;;;23.77;40.16
50852;BME280;43953;45.508;-122.806;2022-10-17T03:06:58;100795.50;;;23.76;40.44
50852;BME280;43953;45.508;-122.806;2022-10-17T03:07:30;100798.25;;;23.76;40.22
50852;BME280;43953;45.508;-122.806;2022-10-17T03:08:02;100796.09;;;23.73;40.29
50852;BME280;43953;45.508;-122.806;2022-10-17T03:08:34;100801.59;;;23.73;40.26
50852;BME280;43953;45.508;-122.806;2022-10-17T03:09:06;100803.81;;;23.71;40.35
50852;BME280;43953;45.508;-122.806;2022-10-17T03:09:38;100799.13;;;23.71;40.29
50852;BME280;43953;45.508;-122.806;2022-10-17T03:10:09;100799.13;;;23.71;40.32
50852;BME280;43953;45.508;-122.806;2022-10-17T03:10:41;100807.69;;;23.70;40.43
50852;BME280;43953;45.508;-122.806;2022-10-17T03:11:13;100801.63;;;23.68;40.68
50852;BME280;43953;45.508;-122.806;2022-10-17T03:11:44;100808.22;;;23.67;40.50
50852;BME280;43953;45.508;-122.806;2022-10-17T03:12:16;100814.53;;;23.67;40.46
50852;BME280;43953;45.508;-122.806;2022-10-17T03:12:48;100806.56;;;23.66;40.66
50852;BME280;43953;45.508;-122.806;2022-10-17T03:13:19;100810.44;;;23.65;40.60
50852;BME280;43953;45.508;-122.806;2022-10-17T03:13:51;100814.31;;;23.64;40.74
50852;BME280;43953;45.508;-122.806;2022-10-17T03:14:23;100808.81;;;23.64;40.64
50852;BME280;43953;45.508;-122.806;2022-10-17T03:14:54;100815.41;;;23.62;40.79
50852;BME280;43953;45.508;-122.806;2022-10-17T03:15:26;100811.03;;;23.61;40.77
50852;BME280;43953;45.508;-122.806;2022-10-17T03:15:58;100816.00;;;23.59;40.76
50852;BME280;43953;45.508;-122.806;2022-10-17T03:16:29;100813.25;;;23.59;40.75
50852;BME280;43953;45.508;-122.806;2022-10-17T03:17:01;100821.81;;;23.58;40.72
50852;BME280;43953;45.508;-122.806;2022-10-17T03:17:34;100815.50;;;23.57;40.70
50852;BME280;43953;45.508;-122.806;2022-10-17T03:18:06;100819.34;;;23.56;40.72
50852;BME280;43953;45.508;-122.806;2022-10-17T03:18:37;100808.66;;;23.55;40.74
50852;BME280;43953;45.508;-122.806;2022-10-17T03:19:12;100819.13;;;23.53;40.81
50852;BME280;43953;45.508;-122.806;2022-10-17T03:19:43;100816.94;;;23.50;40.74
50852;BME280;43953;45.508;-122.806;2022-10-17T03:20:15;100822.13;;;23.51;40.86
50852;BME280;43953;45.508;-122.806;2022-10-17T03:20:47;100823.25;;;23.50;41.00
50852;BME280;43953;45.508;-122.806;2022-10-17T03:21:19;100818.06;;;23.49;41.01
50852;BME280;43953;45.508;-122.806;2022-10-17T03:21:50;100815.59;;;23.47;40.85
50852;BME280;43953;45.508;-122.806;2022-10-17T03:22:22;100814.78;;;23.47;41.00
50852;BME280;43953;45.508;-122.806;2022-10-17T03:22:54;100814.78;;;23.47;41.02
50852;BME280;43953;45.508;-122.806;2022-10-17T03:23:26;100815.38;;;23.44;41.02
50852;BME280;43953;45.508;-122.806;2022-10-17T03:23:57;100820.06;;;23.43;41.19
50852;BME280;43953;45.508;-122.806;2022-10-17T03:24:29;100823.91;;;23.42;41.41
50852;BME280;43953;45.508;-122.806;2022-10-17T03:25:01;100825.84;;;23.42;41.24
50852;BME280;43953;45.508;-122.806;2022-10-17T03:25:32;100833.25;;;23.41;41.25
50852;BME280;43953;45.508;-122.806;2022-10-17T03:26:08;100826.41;;;23.38;41.35
50852;BME280;43953;45.508;-122.806;2022-10-17T03:26:39;100826.41;;;23.38;41.34
50852;BME280;43953;45.508;-122.806;2022-10-17T03:27:11;100829.47;;;23.37;41.22
50852;BME280;43953;45.508;-122.806;2022-10-17T03:27:43;100837.72;;;23.37;41.25
50852;BME280;43953;45.508;-122.806;2022-10-17T03:28:14;100829.75;;;23.35;41.32
50852;BME280;43953;45.508;-122.806;2022-10-17T03:28:46;100834.44;;;23.35;41.52
50852;BME280;43953;45.508;-122.806;2022-10-17T03:29:18;100831.97;;;23.33;41.35
50852;BME280;43953;45.508;-122.806;2022-10-17T03:29:49;100830.34;;;23.32;41.31
50852;BME280;43953;45.508;-122.806;2022-10-17T03:30:21;100835.00;;;23.32;41.37
50852;BME280;43953;45.508;-122.806;2022-10-17T03:30:53;100832.84;;;23.29;41.38
50852;BME280;43953;45.508;-122.806;2022-10-17T03:31:24;100838.34;;;23.29;41.28
50852;BME280;43953;45.508;-122.806;2022-10-17T03:31:56;100838.63;;;23.27;41.49
50852;BME280;43953;45.508;-122.806;2022-10-17T03:32:28;100834.53;;;23.25;41.50
50852;BME280;43953;45.508;-122.806;2022-10-17T03:33:00;100840.03;;;23.25;41.51